PILOTS ONLINE: 295    ATC ONLINE: 42

KGEU

Glendale Municipal Airport

Location

City Glendale
Country  United States
Latitude 33° 31' 36" N
Longitude 112° 17' 41" W
Elevation 1071 ft
Type Small Airport

Map

Weather

METAR
2014/08/20 02:47
KGEU 200247Z 04011G22KT 8SM VCSH BKN100 BKN180 BKN250 23/18 A2982 RMK LAST
TAF
No TAF available

Runways

01/19 7099 ft / 100 ft

Outbound flights

Callsign Flying to Pilot ATD/STD ETA Aircraft

Inbound flights

Callsign Flying from Pilot ATD ETA Aircraft